FRA weather

Public forecast

Using degrees Celsius for public forecast. Weather courtesy of forecast.io.

Current aviation weather report (METAR) for Frankfurt am Main Airport

Retrieved 2020/08/10 18:20 UTC (30 minutes ago):

EDDF 101820Z 02008KT CAVOK 32/16 Q1013 NOSIG

Aviation forecast (TAF) for Frankfurt am Main Airport

Retrieved 2020/08/10 18:27 UTC (23 minutes ago):

TAF EDDF 101700Z 1018/1124 04007KT CAVOK PROB30 TEMPO 1018/1020 02015G30KT -TSRA SCT070CB PROB40 TEMPO 1112/1120 08015G30KT TSRA SCT060CB